Time;durP1;ratioP1;P1;durP2;ratioP2;P2;SDS_P1;SDS_P2;PMS_P1;PMS_P2;Temp;Humidity;BMP_temperature;BMP_pressure;BME280_temperature;BME280_humidity;BME280_pressure;Samples;Min_cycle;Max_cycle;Signal;HPM_P1;HPM_P2
2022/07/03 00:02:09;;;;;;;5.23;3.17;;;;;;;;;;5351190;27;20105;-80
2022/07/03 00:04:40;;;;;;;5.38;2.65;;;;;;;;;;5355043;27;20023;-80
2022/07/03 00:07:11;;;;;;;4.22;2.85;;;;;;;;;;5358092;27;20031;-81
2022/07/03 00:09:42;;;;;;;4.17;3.07;;;;;;;;;;5358299;27;20111;-80
2022/07/03 00:12:14;;;;;;;7.20;3.10;;;;;;;;;;5357738;27;20397;-81
2022/07/03 00:14:45;;;;;;;3.47;3.17;;;;;;;;;;5363076;27;20273;-80
2022/07/03 00:17:16;;;;;;;5.20;3.93;;;;;;;;;;5364695;27;20039;-80
2022/07/03 00:19:47;;;;;;;9.07;4.40;;;;;;;;;;5361915;27;20280;-80
2022/07/03 00:22:19;;;;;;;5.70;5.20;;;;;;;;;;5355084;27;20266;-80
2022/07/03 00:24:51;;;;;;;9.02;5.50;;;;;;;;;;5358289;27;20454;-80
2022/07/03 00:27:24;;;;;;;8.65;6.18;;;;;;;;;;5357039;27;20088;-81
2022/07/03 00:29:58;;;;;;;6.28;5.65;;;;;;;;;;5357875;27;20478;-80
2022/07/03 00:32:29;;;;;;;7.50;6.80;;;;;;;;;;5360515;27;20031;-80
2022/07/03 00:35:01;;;;;;;7.65;5.88;;;;;;;;;;5350633;27;20030;-80
2022/07/03 00:37:32;;;;;;;7.07;6.03;;;;;;;;;;5353476;27;20038;-80
2022/07/03 00:40:04;;;;;;;9.47;6.20;;;;;;;;;;5359662;27;20019;-80
2022/07/03 00:42:37;;;;;;;6.88;6.22;;;;;;;;;;5357624;27;20061;-80
2022/07/03 00:45:09;;;;;;;6.88;6.07;;;;;;;;;;5356723;27;20395;-80
2022/07/03 00:47:41;;;;;;;7.88;6.10;;;;;;;;;;5355840;27;20043;-80
2022/07/03 00:50:13;;;;;;;6.18;5.53;;;;;;;;;;5355258;27;20023;-80
2022/07/03 00:52:45;;;;;;;6.10;5.50;;;;;;;;;;5357897;27;20497;-80
2022/07/03 00:55:17;;;;;;;11.07;7.07;;;;;;;;;;5355402;27;20409;-80
2022/07/03 00:57:48;;;;;;;8.50;6.35;;;;;;;;;;5355567;27;20046;-80
2022/07/03 01:00:19;;;;;;;8.32;6.50;;;;;;;;;;5351383;27;20040;-80
2022/07/03 01:02:53;;;;;;;7.73;5.80;;;;;;;;;;5339456;27;20040;-80
2022/07/03 01:05:32;;;;;;;7.63;6.80;;;;;;;;;;5336288;27;20047;-80
2022/07/03 01:08:06;;;;;;;9.73;7.40;;;;;;;;;;5336802;27;20023;-80
2022/07/03 01:10:56;;;;;;;7.32;6.57;;;;;;;;;;5335885;27;20628;-80
2022/07/03 01:13:31;;;;;;;9.10;6.55;;;;;;;;;;5336502;27;20039;-80
2022/07/03 01:16:21;;;;;;;7.22;6.18;;;;;;;;;;5339118;27;20036;-80
2022/07/03 01:19:02;;;;;;;9.45;6.50;;;;;;;;;;5335646;27;20062;-80
2022/07/03 01:21:34;;;;;;;7.13;6.45;;;;;;;;;;5319144;27;20031;-80
2022/07/03 01:24:11;;;;;;;7.30;6.65;;;;;;;;;;5335860;27;20032;-80
2022/07/03 01:26:44;;;;;;;8.85;6.25;;;;;;;;;;5333133;27;20027;-80
2022/07/03 01:29:22;;;;;;;7.43;6.50;;;;;;;;;;5341251;27;20027;-80
2022/07/03 01:31:54;;;;;;;12.18;8.98;;;;;;;;;;5336900;27;20093;-80
2022/07/03 01:34:29;;;;;;;6.45;5.85;;;;;;;;;;5335708;27;20020;-80
2022/07/03 01:37:01;;;;;;;9.95;7.00;;;;;;;;;;5333999;27;20047;-80
2022/07/03 01:39:35;;;;;;;8.82;7.80;;;;;;;;;;5336288;27;20020;-80
2022/07/03 01:42:08;;;;;;;7.80;6.95;;;;;;;;;;5334816;27;20036;-80
2022/07/03 01:44:39;;;;;;;9.93;8.93;;;;;;;;;;5338641;27;20713;-80
2022/07/03 01:47:11;;;;;;;12.77;11.00;;;;;;;;;;5336608;27;20110;-80
2022/07/03 01:49:43;;;;;;;7.75;7.00;;;;;;;;;;5340999;27;20417;-80
2022/07/03 01:52:15;;;;;;;11.07;8.85;;;;;;;;;;5338601;27;20162;-80
2022/07/03 01:54:47;;;;;;;10.23;9.20;;;;;;;;;;5341258;27;20051;-80
2022/07/03 01:57:18;;;;;;;11.73;9.05;;;;;;;;;;5348021;27;20459;-80
2022/07/03 01:59:49;;;;;;;6.93;6.32;;;;;;;;;;5341833;27;20043;-80
2022/07/03 02:02:32;;;;;;;8.73;6.97;;;;;;;;;;5318469;27;20044;-85
2022/07/03 02:05:07;;;;;;;10.25;8.00;;;;;;;;;;5356610;27;20038;-85
2022/07/03 02:07:54;;;;;;;9.15;7.93;;;;;;;;;;5348764;27;20036;-85
2022/07/03 02:10:28;;;;;;;12.07;10.75;;;;;;;;;;5325088;27;20036;-84
2022/07/03 02:13:02;;;;;;;10.60;9.60;;;;;;;;;;5327625;28;20032;-84
2022/07/03 02:15:34;;;;;;;11.00;9.60;;;;;;;;;;5332490;27;20053;-84
2022/07/03 02:18:24;;;;;;;14.32;10.52;;;;;;;;;;5344178;27;20077;-84
2022/07/03 02:21:15;;;;;;;11.45;10.00;;;;;;;;;;5320983;27;20032;-84
2022/07/03 02:23:49;;;;;;;8.55;7.72;;;;;;;;;;5343386;27;20421;-84
2022/07/03 02:26:26;;;;;;;9.38;8.43;;;;;;;;;;5339835;27;20081;-83
2022/07/03 02:29:01;;;;;;;12.27;11.15;;;;;;;;;;5345327;27;20032;-83
2022/07/03 02:31:39;;;;;;;8.75;7.95;;;;;;;;;;5344319;27;20081;-84
2022/07/03 02:34:15;;;;;;;12.63;10.57;;;;;;;;;;5334463;27;20497;-84
2022/07/03 02:36:49;;;;;;;11.68;10.20;;;;;;;;;;5334735;27;20020;-83
2022/07/03 02:39:26;;;;;;;11.55;10.45;;;;;;;;;;5348643;27;20102;-84
2022/07/03 02:41:58;;;;;;;12.70;11.38;;;;;;;;;;5317393;27;20034;-84
2022/07/03 02:44:29;;;;;;;10.52;9.52;;;;;;;;;;5341205;27;20024;-84
2022/07/03 02:47:10;;;;;;;9.83;8.83;;;;;;;;;;5318163;27;20016;-84
2022/07/03 02:49:48;;;;;;;12.68;11.38;;;;;;;;;;5308486;28;20028;-84
2022/07/03 02:52:37;;;;;;;13.75;12.10;;;;;;;;;;5333141;27;20042;-84
2022/07/03 02:55:27;;;;;;;11.38;10.25;;;;;;;;;;5316017;27;20027;-84
2022/07/03 02:58:19;;;;;;;16.20;12.23;;;;;;;;;;5310366;28;20499;-84
2022/07/03 03:00:56;;;;;;;12.57;10.95;;;;;;;;;;5324023;27;20044;-84
2022/07/03 03:03:29;;;;;;;10.93;9.80;;;;;;;;;;5357702;27;20035;-84
2022/07/03 03:06:01;;;;;;;9.52;8.57;;;;;;;;;;5364290;27;20055;-84
2022/07/03 03:08:43;;;;;;;14.05;10.98;;;;;;;;;;5363590;27;20118;-84
2022/07/03 03:11:22;;;;;;;11.13;9.18;;;;;;;;;;5353912;27;20420;-84
2022/07/03 03:13:55;;;;;;;11.40;8.10;;;;;;;;;;5368996;27;20035;-84
2022/07/03 03:16:27;;;;;;;11.52;10.48;;;;;;;;;;5350430;27;20073;-84
2022/07/03 03:18:58;;;;;;;12.15;11.00;;;;;;;;;;5351944;27;20039;-84
2022/07/03 03:21:31;;;;;;;12.30;11.20;;;;;;;;;;5345947;27;20111;-85
2022/07/03 03:24:02;;;;;;;12.63;11.48;;;;;;;;;;5365171;27;20063;-83
2022/07/03 03:26:33;;;;;;;12.98;11.45;;;;;;;;;;5348846;27;20055;-83
2022/07/03 03:29:05;;;;;;;12.30;10.93;;;;;;;;;;5351721;27;20088;-84
2022/07/03 03:31:36;;;;;;;11.05;9.98;;;;;;;;;;5347749;27;20019;-84
2022/07/03 03:34:09;;;;;;;13.20;10.00;;;;;;;;;;5367308;27;20031;-84
2022/07/03 03:36:40;;;;;;;11.50;10.40;;;;;;;;;;5366079;27;20239;-85
2022/07/03 03:39:12;;;;;;;9.88;8.98;;;;;;;;;;5350834;27;20024;-85
2022/07/03 03:41:43;;;;;;;9.90;8.90;;;;;;;;;;5359607;27;20059;-86
2022/07/03 03:44:14;;;;;;;11.82;8.98;;;;;;;;;;5361968;27;20084;-84
2022/07/03 03:46:45;;;;;;;9.45;8.35;;;;;;;;;;5367737;27;20042;-84
2022/07/03 03:49:17;;;;;;;11.10;8.45;;;;;;;;;;5364039;27;20038;-84
2022/07/03 03:51:48;;;;;;;10.73;8.00;;;;;;;;;;5383309;27;20039;-85
2022/07/03 03:54:19;;;;;;;9.20;8.15;;;;;;;;;;5392765;27;20054;-83
2022/07/03 03:56:51;;;;;;;8.77;7.22;;;;;;;;;;5384153;27;20053;-84
2022/07/03 03:59:22;;;;;;;8.13;7.22;;;;;;;;;;5374066;27;20035;-85
2022/07/03 04:01:53;;;;;;;12.75;6.88;;;;;;;;;;5369905;27;20047;-83
2022/07/03 04:04:27;;;;;;;7.43;6.72;;;;;;;;;;5360735;27;20323;-83
2022/07/03 04:06:58;;;;;;;7.07;6.07;;;;;;;;;;5352289;27;20534;-83
2022/07/03 04:09:30;;;;;;;9.43;6.13;;;;;;;;;;5364403;27;20114;-83
2022/07/03 04:12:02;;;;;;;7.05;6.32;;;;;;;;;;5353799;27;20024;-83
2022/07/03 04:14:33;;;;;;;7.15;5.95;;;;;;;;;;5352123;27;20035;-83
2022/07/03 04:17:05;;;;;;;7.73;6.97;;;;;;;;;;5367290;27;20079;-84
2022/07/03 04:19:36;;;;;;;7.30;6.60;;;;;;;;;;5370423;27;20284;-83
2022/07/03 04:22:08;;;;;;;6.63;5.97;;;;;;;;;;5364231;27;20285;-84
2022/07/03 04:24:39;;;;;;;7.05;5.72;;;;;;;;;;5359748;27;20358;-84
2022/07/03 04:27:10;;;;;;;6.43;5.78;;;;;;;;;;5372530;27;20019;-83
2022/07/03 04:29:41;;;;;;;6.67;5.83;;;;;;;;;;5350732;27;20047;-84
2022/07/03 04:32:13;;;;;;;8.03;5.97;;;;;;;;;;5354193;27;20860;-83
2022/07/03 04:34:44;;;;;;;9.83;6.80;;;;;;;;;;5352139;27;20295;-83
2022/07/03 04:37:15;;;;;;;7.85;6.95;;;;;;;;;;5349346;27;20293;-83
2022/07/03 04:39:46;;;;;;;8.63;6.13;;;;;;;;;;5357082;27;20023;-83
2022/07/03 04:42:18;;;;;;;7.75;6.70;;;;;;;;;;5357540;27;20046;-83
2022/07/03 04:44:49;;;;;;;7.80;6.22;;;;;;;;;;5354992;27;20363;-83
2022/07/03 04:47:20;;;;;;;6.70;6.10;;;;;;;;;;5356105;27;20030;-83
2022/07/03 04:49:51;;;;;;;7.13;6.35;;;;;;;;;;5361653;27;20022;-83
2022/07/03 04:52:23;;;;;;;6.70;5.90;;;;;;;;;;5359661;27;20032;-83
2022/07/03 04:54:54;;;;;;;7.03;6.15;;;;;;;;;;5360668;27;20629;-83
2022/07/03 04:57:25;;;;;;;6.38;5.47;;;;;;;;;;5350543;27;20027;-83
2022/07/03 04:59:56;;;;;;;7.10;5.60;;;;;;;;;;5362982;27;20382;-83
2022/07/03 05:02:28;;;;;;;7.20;5.53;;;;;;;;;;5342864;27;20198;-84
2022/07/03 05:04:59;;;;;;;6.03;5.50;;;;;;;;;;5322259;27;20047;-83
2022/07/03 05:07:30;;;;;;;7.45;5.68;;;;;;;;;;5324926;27;20422;-84
2022/07/03 05:10:01;;;;;;;6.03;4.93;;;;;;;;;;5321891;27;20073;-84
2022/07/03 05:12:32;;;;;;;6.90;6.13;;;;;;;;;;5338775;27;20036;-84
2022/07/03 05:15:04;;;;;;;7.50;6.03;;;;;;;;;;5329788;27;20288;-84
2022/07/03 05:17:35;;;;;;;7.43;5.15;;;;;;;;;;5317790;27;20070;-84
2022/07/03 05:20:27;;;;;;;7.15;5.65;;;;;;;;;;5320331;27;20028;-83
2022/07/03 05:22:59;;;;;;;5.03;4.43;;;;;;;;;;5316058;27;20070;-84
2022/07/03 05:25:31;;;;;;;5.75;5.15;;;;;;;;;;5342374;27;20062;-84
2022/07/03 05:28:02;;;;;;;7.20;4.80;;;;;;;;;;5318067;27;20116;-84
2022/07/03 05:30:33;;;;;;;6.85;6.07;;;;;;;;;;5319083;27;20028;-84
2022/07/03 05:33:05;;;;;;;6.32;5.70;;;;;;;;;;5338962;27;20428;-84
2022/07/03 05:35:36;;;;;;;10.02;5.30;;;;;;;;;;5313000;27;20031;-83
2022/07/03 05:38:07;;;;;;;7.03;5.50;;;;;;;;;;5338325;27;20040;-84
2022/07/03 05:40:38;;;;;;;8.48;5.50;;;;;;;;;;5333596;27;20158;-84
2022/07/03 05:43:10;;;;;;;5.50;4.87;;;;;;;;;;5310610;27;20028;-85
2022/07/03 05:45:41;;;;;;;6.63;5.40;;;;;;;;;;5332878;27;20268;-84
2022/07/03 05:48:12;;;;;;;7.75;4.18;;;;;;;;;;5316350;27;20300;-84
2022/07/03 05:50:43;;;;;;;6.63;4.07;;;;;;;;;;5321037;27;20031;-84
2022/07/03 05:53:14;;;;;;;6.70;4.60;;;;;;;;;;5327635;27;20361;-84
2022/07/03 05:55:46;;;;;;;8.95;4.60;;;;;;;;;;5337686;27;20487;-83
2022/07/03 05:58:17;;;;;;;4.87;4.37;;;;;;;;;;5344950;27;20101;-84
2022/07/03 06:00:50;;;;;;;7.57;3.75;;;;;;;;;;5334387;27;20694;-84
2022/07/03 06:03:22;;;;;;;5.38;3.72;;;;;;;;;;5362963;27;20473;-84
2022/07/03 06:05:53;;;;;;;5.77;3.70;;;;;;;;;;5360629;27;20185;-84
2022/07/03 06:08:24;;;;;;;6.68;3.80;;;;;;;;;;5356245;27;20739;-85
2022/07/03 06:10:56;;;;;;;5.45;3.67;;;;;;;;;;5358815;27;20016;-84
2022/07/03 06:13:27;;;;;;;6.75;4.00;;;;;;;;;;5357186;27;20062;-84
2022/07/03 06:16:02;;;;;;;7.00;2.97;;;;;;;;;;5373559;27;20043;-85
2022/07/03 06:18:49;;;;;;;5.50;3.55;;;;;;;;;;5371948;27;20495;-85
2022/07/03 06:24:42;;;;;;;8.25;3.63;;;;;;;;;;5356268;27;20024;-85
2022/07/03 06:27:47;;;;;;;;;;;;;;;;;;;;;
2022/07/03 06:30:20;;;;;;;7.85;3.53;;;;;;;;;;5361444;27;20027;-84
2022/07/03 06:32:57;;;;;;;3.85;2.92;;;;;;;;;;5360820;27;20039;-84
2022/07/03 06:35:36;;;;;;;5.13;3.17;;;;;;;;;;5349464;27;20023;-85
2022/07/03 06:38:13;;;;;;;9.68;3.03;;;;;;;;;;5353871;27;20130;-84
2022/07/03 06:40:53;;;;;;;6.15;3.38;;;;;;;;;;5357527;27;20018;-85
2022/07/03 06:43:33;;;;;;;4.57;3.00;;;;;;;;;;5362910;27;20059;-84
2022/07/03 06:46:10;;;;;;;3.42;2.72;;;;;;;;;;5363144;27;20042;-84
2022/07/03 06:48:42;;;;;;;7.25;2.97;;;;;;;;;;5361663;27;20031;-85
2022/07/03 06:51:13;;;;;;;7.03;3.25;;;;;;;;;;5360070;27;20027;-85
2022/07/03 06:53:54;;;;;;;5.40;2.92;;;;;;;;;;5354597;27;20395;-85
2022/07/03 06:56:27;;;;;;;5.22;2.85;;;;;;;;;;5354798;27;20047;-85
2022/07/03 06:59:07;;;;;;;4.18;2.58;;;;;;;;;;5356856;27;20035;-85
2022/07/03 07:01:50;;;;;;;4.78;2.65;;;;;;;;;;5349359;27;20058;-85
2022/07/03 07:04:27;;;;;;;6.38;2.88;;;;;;;;;;5346468;27;20123;-86
2022/07/03 07:07:04;;;;;;;5.22;2.70;;;;;;;;;;5358914;27;20039;-85
2022/07/03 07:09:44;;;;;;;7.97;2.95;;;;;;;;;;5356530;27;20031;-85
2022/07/03 07:12:39;;;;;;;5.70;2.47;;;;;;;;;;5353168;27;20047;-86
2022/07/03 07:15:15;;;;;;;5.40;2.65;;;;;;;;;;5345534;27;20070;-84
2022/07/03 07:17:58;;;;;;;4.00;2.13;;;;;;;;;;5349050;27;20039;-85
2022/07/03 07:31:03;;;;;;;;;;;;;;;;;;;;;
2022/07/03 07:40:42;;;;;;;3.92;2.20;;;;;;;;;;5251384;28;20038;-84
2022/07/03 07:50:53;;;;;;;;;;;;;;;;;;;;;
2022/07/03 07:54:00;;;;;;;;;;;;;;;;;;;;;
2022/07/03 07:57:00;;;;;;;;;;;;;;;;;;;;;
2022/07/03 08:06:33;;;;;;;4.03;2.65;;;;;;;;;;5332809;27;20421;-85
2022/07/03 08:16:38;;;;;;;;;;;;;;;;;;;;;
2022/07/03 08:23:18;;;;;;;4.03;2.08;;;;;;;;;;5103272;28;20040;-85
2022/07/03 08:26:11;;;;;;;;;;;;;;;;;;;;;
2022/07/03 08:35:24;;;;;;;3.25;2.00;;;;;;;;;;5176932;28;20143;-85
2022/07/03 08:41:53;;;;;;;;;;;;;;;;;;;;;
2022/07/03 08:45:17;;;;;;;;;;;;;;;;;;;;;
2022/07/03 08:48:22;;;;;;;3.05;1.95;;;;;;;;;;5175784;28;20120;-85
2022/07/03 08:51:35;;;;;;;3.20;1.90;;;;;;;;;;5153691;28;20306;-84
2022/07/03 08:57:56;;;;;;;6.68;2.40;;;;;;;;;;5192297;28;20493;-84
2022/07/03 09:00:43;;;;;;;3.15;1.02;;;;;;;;;;5195472;28;20623;-84
2022/07/03 09:10:46;;;;;;;4.82;2.30;;;;;;;;;;5177748;28;20027;-84
2022/07/03 09:20:11;;;;;;;;;;;;;;;;;;;;;
2022/07/03 09:23:14;;;;;;;3.97;2.08;;;;;;;;;;5155934;28;40498;-84
2022/07/03 09:26:15;;;;;;;4.72;2.15;;;;;;;;;;5156253;28;20031;-84
2022/07/03 09:28:55;;;;;;;2.35;1.50;;;;;;;;;;5213701;28;20116;-84
2022/07/03 09:31:45;;;;;;;;;;;;;;;;;;;;;
2022/07/03 09:35:08;;;;;;;;;;;;;;;;;;;;;
2022/07/03 09:47:53;;;;;;;4.70;1.98;;;;;;;;;;5165427;28;20078;-84
2022/07/03 09:50:54;;;;;;;4.88;2.10;;;;;;;;;;5182581;28;20051;-84
2022/07/03 10:07:23;;;;;;;;;;;;;;;;;;;;;
2022/07/03 10:13:30;;;;;;;4.28;1.50;;;;;;;;;;5187260;28;20035;-84
2022/07/03 10:19:58;;;;;;;;;;;;;;;;;;;;;
2022/07/03 10:23:10;;;;;;;3.58;1.35;;;;;;;;;;5117247;29;42778;-84
2022/07/03 10:26:07;;;;;;;4.30;1.52;;;;;;;;;;5243880;28;20026;-84
2022/07/03 10:29:18;;;;;;;;;;;;;;;;;;;;;
2022/07/03 10:32:22;;;;;;;3.67;1.27;;;;;;;;;;5245923;28;41491;-85
2022/07/03 10:35:19;;;;;;;2.22;1.00;;;;;;;;;;5218122;28;20042;-86
2022/07/03 10:38:22;;;;;;;;;;;;;;;;;;;;;
2022/07/03 10:47:37;;;;;;;1.40;1.05;;;;;;;;;;5323554;28;20062;-85
2022/07/03 10:57:07;;;;;;;3.40;1.23;;;;;;;;;;5347024;27;20054;-84
2022/07/03 11:03:15;;;;;;;;;;;;;;;;;;;;;
2022/07/03 11:05:59;;;;;;;7.10;1.45;;;;;;;;;;5281280;28;20041;-85
2022/07/03 11:21:55;;;;;;;2.53;1.40;;;;;;;;;;5256227;28;20038;-85
2022/07/03 11:28:11;;;;;;;;;;;;;;;;;;;;;
2022/07/03 11:31:27;;;;;;;;;;;;;;;;;;;;;
2022/07/03 11:37:31;;;;;;;3.53;1.42;;;;;;;;;;5328567;27;20092;-85
2022/07/03 11:40:47;;;;;;;;;;;;;;;;;;;;;
2022/07/03 11:47:11;;;;;;;;;;;;;;;;;;;;;
2022/07/03 11:50:33;;;;;;;;;;;;;;;;;;;;;
2022/07/03 11:53:40;;;;;;;4.75;1.63;;;;;;;;;;5335867;27;41167;-85
2022/07/03 11:56:40;;;;;;;;;;;;;;;;;;;;;
2022/07/03 12:03:04;;;;;;;4.75;1.25;;;;;;;;;;5209255;28;20053;-85
2022/07/03 12:12:51;;;;;;;;;;;;;;;;;;;;;
2022/07/03 12:15:44;;;;;;;4.68;0.80;;;;;;;;;;5148576;28;41175;-85
2022/07/03 12:18:16;;;;;;;4.80;1.15;;;;;;;;;;5194304;28;20039;-84
2022/07/03 12:21:31;;;;;;;;;;;;;;;;;;;;;
2022/07/03 12:24:45;;;;;;;;;;;;;;;;;;;;;
2022/07/03 12:37:47;;;;;;;;;;;;;;;;;;;;;
2022/07/03 12:53:21;;;;;;;2.92;0.70;;;;;;;;;;5292968;28;20136;-83
2022/07/03 13:13:14;;;;;;;;;;;;;;;;;;;;;
2022/07/03 13:22:27;;;;;;;5.97;0.43;;;;;;;;;;5117738;28;20037;-86
2022/07/03 14:21:11;;;;;;;;;;;;;;;;;;;;;
2022/07/03 14:34:08;;;;;;;2.67;1.00;;;;;;;;;;5009315;29;20035;-85
2022/07/03 14:37:05;;;;;;;4.05;0.90;;;;;;;;;;5047333;29;20049;-84
2022/07/03 14:46:16;;;;;;;4.65;1.10;;;;;;;;;;5105991;29;20032;-85
2022/07/03 15:17:27;;;;;;;;;;;;;;;;;;;;;
2022/07/03 15:30:14;;;;;;;;;;;;;;;;;;;;;
2022/07/03 16:13:23;;;;;;;2.80;0.70;;;;;;;;;;5233834;28;20058;-85
2022/07/03 16:16:24;;;;;;;3.40;1.75;;;;;;;;;;5232592;28;20038;-85
2022/07/03 16:54:32;;;;;;;3.58;0.80;;;;;;;;;;5241862;28;20597;-87
2022/07/03 17:11:28;;;;;;;;;;;;;;;;;;;;;
2022/07/03 17:23:43;;;;;;;3.38;0.85;;;;;;;;;;5210940;28;20066;-86
2022/07/03 17:33:21;;;;;;;2.28;0.50;;;;;;;;;;5097891;29;20037;-85
2022/07/03 17:47:04;;;;;;;;;;;;;;;;;;;;;
2022/07/03 17:55:33;;;;;;;2.65;1.00;;;;;;;;;;5156443;29;20052;-86
2022/07/03 17:58:22;;;;;;;3.25;1.10;;;;;;;;;;5136959;29;20040;-86
2022/07/03 18:01:33;;;;;;;;;;;;;;;;;;;;;
2022/07/03 18:04:31;;;;;;;2.38;0.95;;;;;;;;;;5183273;28;41630;-86
2022/07/03 18:49:12;;;;;;;;;;;;;;;;;;;;;
2022/07/03 18:55:27;;;;;;;3.35;1.10;;;;;;;;;;5274551;28;20038;-85
2022/07/03 19:01:50;;;;;;;;;;;;;;;;;;;;;
2022/07/03 19:25:05;;;;;;;;;;;;;;;;;;;;;
2022/07/03 19:34:25;;;;;;;1.30;0.77;;;;;;;;;;5073047;29;20078;-87
2022/07/03 19:56:51;;;;;;;1.85;1.00;;;;;;;;;;4974505;29;20040;-86
2022/07/03 20:06:30;;;;;;;5.70;2.65;;;;;;;;;;4996872;29;20120;-85
2022/07/03 20:09:18;;;;;;;;;;;;;;;;;;;;;
2022/07/03 20:12:22;;;;;;;;;;;;;;;;;;;;;
2022/07/03 20:14:56;;;;;;;3.63;1.10;;;;;;;;;;5054575;29;39341;-85
2022/07/03 20:18:01;;;;;;;;;;;;;;;;;;;;;
2022/07/03 20:20:41;;;;;;;5.93;1.30;;;;;;;;;;5121461;28;41503;-86
2022/07/03 20:23:26;;;;;;;7.13;1.98;;;;;;;;;;5198616;28;20509;-86
2022/07/03 20:33:10;;;;;;;;;;;;;;;;;;;;;
2022/07/03 20:43:02;;;;;;;;;;;;;;;;;;;;;
2022/07/03 20:45:39;;;;;;;2.40;1.30;;;;;;;;;;5149953;28;41228;-85
2022/07/03 20:48:21;;;;;;;2.38;1.00;;;;;;;;;;5166882;28;20048;-85
2022/07/03 20:57:46;;;;;;;1.73;1.10;;;;;;;;;;5128965;28;20107;-85
2022/07/03 21:00:20;;;;;;;2.58;1.60;;;;;;;;;;5172755;28;20122;-86
2022/07/03 21:02:51;;;;;;;2.60;1.30;;;;;;;;;;5271650;28;20036;-85
2022/07/03 21:05:23;;;;;;;4.30;1.93;;;;;;;;;;5303784;28;20024;-85
2022/07/03 21:08:25;;;;;;;4.05;2.22;;;;;;;;;;5281636;28;20386;-85
2022/07/03 21:13:52;;;;;;;2.38;1.75;;;;;;;;;;5282502;28;20037;-85
2022/07/03 21:16:45;;;;;;;2.70;1.48;;;;;;;;;;5263643;28;20059;-86
2022/07/03 21:19:35;;;;;;;2.72;1.75;;;;;;;;;;5289944;28;20036;-86
2022/07/03 21:22:15;;;;;;;4.25;1.60;;;;;;;;;;5276962;28;20410;-86
2022/07/03 21:25:01;;;;;;;7.68;2.22;;;;;;;;;;5265368;28;20129;-86
2022/07/03 21:27:42;;;;;;;8.93;1.97;;;;;;;;;;5269491;28;20041;-86
2022/07/03 21:30:13;;;;;;;4.10;2.72;;;;;;;;;;5242311;28;20422;-86
2022/07/03 21:32:48;;;;;;;4.68;1.98;;;;;;;;;;5239687;28;20098;-86
2022/07/03 21:35:36;;;;;;;5.93;2.38;;;;;;;;;;5240882;28;20077;-86
2022/07/03 21:38:37;;;;;;;;;;;;;;;;;;;;;
2022/07/03 21:41:22;;;;;;;;;;;;;;;;;;;;;
2022/07/03 21:44:11;;;;;;;4.63;2.30;;;;;;;;;;5236058;28;40773;-86
2022/07/03 21:47:17;;;;;;;4.05;2.22;;;;;;;;;;5239295;28;20072;-86
2022/07/03 21:49:42;;;;;;;4.35;3.20;;;;;;;;;;5237368;28;20409;-86
2022/07/03 21:52:28;;;;;;;4.53;2.40;;;;;;;;;;5224762;28;20046;-85
2022/07/03 21:55:17;;;;;;;7.30;2.83;;;;;;;;;;5254296;28;20078;-86
2022/07/03 21:58:11;;;;;;;;;;;;;;;;;;;;;
2022/07/03 22:04:40;;;;;;;;;;;;;;;;;;;;;
2022/07/03 22:07:39;;;;;;;5.38;2.83;;;;;;;;;;5269543;28;41158;-85
2022/07/03 22:13:20;;;;;;;6.45;3.10;;;;;;;;;;5280863;28;20112;-86
2022/07/03 22:15:58;;;;;;;4.32;3.28;;;;;;;;;;5260576;28;20052;-85
2022/07/03 22:18:35;;;;;;;5.95;3.03;;;;;;;;;;5261620;28;20543;-85
2022/07/03 22:21:20;;;;;;;;;;;;;;;;;;;;;
2022/07/03 22:24:08;;;;;;;;;;;;;;;;;;;;;
2022/07/03 22:26:46;;;;;;;7.30;3.08;;;;;;;;;;5285788;28;41214;-85
2022/07/03 22:29:37;;;;;;;6.65;4.07;;;;;;;;;;5265164;28;20079;-86
2022/07/03 22:32:15;;;;;;;6.18;3.75;;;;;;;;;;5274760;28;20021;-86
2022/07/03 22:35:38;;;;;;;;;;;;;;;;;;;;;
2022/07/03 22:38:27;;;;;;;4.72;3.10;;;;;;;;;;5210808;28;40797;-86
2022/07/03 22:41:04;;;;;;;5.22;3.10;;;;;;;;;;5251370;28;20036;-86
2022/07/03 22:43:39;;;;;;;5.53;3.22;;;;;;;;;;5262083;28;20131;-86
2022/07/03 22:46:19;;;;;;;5.25;3.10;;;;;;;;;;5263243;28;20434;-85
2022/07/03 22:49:09;;;;;;;6.00;3.38;;;;;;;;;;5264135;28;20041;-85
2022/07/03 22:51:41;;;;;;;7.15;3.53;;;;;;;;;;5265103;28;20335;-86
2022/07/03 22:54:12;;;;;;;5.30;2.80;;;;;;;;;;5259720;28;20041;-85
2022/07/03 22:57:10;;;;;;;7.85;3.63;;;;;;;;;;5245835;28;20108;-86
2022/07/03 22:59:50;;;;;;;5.32;4.03;;;;;;;;;;5243015;28;20511;-85
2022/07/03 23:02:37;;;;;;;5.88;3.15;;;;;;;;;;5243254;28;20458;-85
2022/07/03 23:05:24;;;;;;;3.97;3.57;;;;;;;;;;5254630;28;20057;-85
2022/07/03 23:08:06;;;;;;;5.82;3.30;;;;;;;;;;5260896;28;20381;-85
2022/07/03 23:10:56;;;;;;;3.33;2.67;;;;;;;;;;5243104;28;20048;-85
2022/07/03 23:13:37;;;;;;;4.32;3.30;;;;;;;;;;5256209;28;20044;-86
2022/07/03 23:16:22;;;;;;;6.30;2.90;;;;;;;;;;5241426;28;20532;-85
2022/07/03 23:18:55;;;;;;;3.28;2.85;;;;;;;;;;5259850;28;20033;-86
2022/07/03 23:21:32;;;;;;;4.43;2.75;;;;;;;;;;5260743;28;20096;-86
2022/07/03 23:24:04;;;;;;;5.13;3.03;;;;;;;;;;5258995;28;20069;-86
2022/07/03 23:26:43;;;;;;;3.95;2.90;;;;;;;;;;5234878;28;20505;-86
2022/07/03 23:29:25;;;;;;;6.28;3.63;;;;;;;;;;5252880;28;20032;-86
2022/07/03 23:32:03;;;;;;;5.50;3.53;;;;;;;;;;5273715;28;20033;-85
2022/07/03 23:34:38;;;;;;;6.80;3.72;;;;;;;;;;5246672;28;20116;-85
2022/07/03 23:37:20;;;;;;;9.13;4.47;;;;;;;;;;5273271;28;20025;-85
2022/07/03 23:39:54;;;;;;;6.60;3.85;;;;;;;;;;5253548;28;20178;-85
2022/07/03 23:42:28;;;;;;;3.45;3.15;;;;;;;;;;5253772;28;20052;-85
2022/07/03 23:45:02;;;;;;;3.80;3.40;;;;;;;;;;5272218;28;20026;-85
2022/07/03 23:47:46;;;;;;;4.82;3.45;;;;;;;;;;5241649;28;20449;-86
2022/07/03 23:50:36;;;;;;;5.47;3.80;;;;;;;;;;5241628;28;20089;-85
2022/07/03 23:53:10;;;;;;;4.32;3.92;;;;;;;;;;5259628;28;20069;-85
2022/07/03 23:55:44;;;;;;;6.43;4.22;;;;;;;;;;5247798;28;20069;-85
2022/07/03 23:58:15;;;;;;;4.40;4.00;;;;;;;;;;5262023;28;20107;-86
